Time;durP1;ratioP1;P1;durP2;ratioP2;P2;SDS_P1;SDS_P2;PMS_P1;PMS_P2;Temp;Humidity;BMP_temperature;BMP_pressure;BME280_temperature;BME280_humidity;BME280_pressure;Samples;Min_cycle;Max_cycle;Signal;HPM_P1;HPM_P2
2023/06/19 00:02:20;;;;;;;8.88;7.72;;;22.20;79.20;;;;;;5031101;28;20044;-59
2023/06/19 00:04:46;;;;;;;12.07;8.63;;;22.20;78.90;;;;;;5045711;28;20484;-59
2023/06/19 00:07:11;;;;;;;11.88;8.27;;;22.20;78.60;;;;;;5052674;28;20108;-58
2023/06/19 00:09:37;;;;;;;10.32;7.80;;;22.30;78.40;;;;;;5047194;28;20063;-59
2023/06/19 00:12:04;;;;;;;8.68;7.78;;;22.30;78.60;;;;;;5029630;28;20394;-65
2023/06/19 00:14:29;;;;;;;12.05;8.20;;;22.30;78.30;;;;;;5041889;28;20488;-60
2023/06/19 00:16:56;;;;;;;11.73;8.50;;;22.30;78.20;;;;;;5044875;28;20151;-63
2023/06/19 00:19:22;;;;;;;9.55;7.68;;;22.30;78.10;;;;;;5048114;28;20064;-60
2023/06/19 00:21:48;;;;;;;8.40;7.35;;;22.30;78.10;;;;;;5036384;28;20045;-58
2023/06/19 00:24:13;;;;;;;12.05;8.60;;;22.30;78.30;;;;;;5041942;28;20028;-61
2023/06/19 00:26:40;;;;;;;9.85;7.38;;;22.20;78.30;;;;;;5053470;28;20486;-58
2023/06/19 00:29:06;;;;;;;9.70;7.93;;;22.30;78.30;;;;;;5043477;28;20033;-62
2023/06/19 00:31:32;;;;;;;9.75;8.38;;;22.20;78.30;;;;;;5039785;28;20095;-61
2023/06/19 00:33:57;;;;;;;9.77;8.38;;;22.30;78.30;;;;;;5046775;28;20494;-63
2023/06/19 00:36:25;;;;;;;13.38;8.20;;;22.20;78.20;;;;;;5035600;28;20487;-58
2023/06/19 00:38:51;;;;;;;9.45;7.82;;;22.20;78.20;;;;;;5041625;28;20048;-60
2023/06/19 00:41:18;;;;;;;10.40;8.13;;;22.20;78.30;;;;;;5031873;28;20037;-58
2023/06/19 00:43:44;;;;;;;10.02;7.53;;;22.20;78.30;;;;;;5039454;28;20037;-58
2023/06/19 00:46:11;;;;;;;10.35;8.10;;;22.20;78.30;;;;;;5039945;28;20163;-58
2023/06/19 00:48:37;;;;;;;11.73;8.13;;;22.20;78.50;;;;;;5028698;28;20045;-61
2023/06/19 00:51:02;;;;;;;10.32;8.10;;;22.20;78.50;;;;;;5045940;28;20036;-59
2023/06/19 00:53:30;;;;;;;8.90;7.60;;;22.20;78.40;;;;;;5010285;28;20071;-61
2023/06/19 00:55:57;;;;;;;11.27;8.45;;;22.20;78.40;;;;;;5026312;28;20107;-58
2023/06/19 00:58:23;;;;;;;10.45;8.15;;;22.20;78.10;;;;;;5043436;28;20037;-59
2023/06/19 01:00:49;;;;;;;10.20;8.32;;;22.10;78.00;;;;;;5049413;28;20052;-60
2023/06/19 01:03:15;;;;;;;10.20;7.70;;;22.20;78.20;;;;;;5042074;28;20120;-61
2023/06/19 01:05:42;;;;;;;11.18;7.90;;;22.20;78.10;;;;;;5048559;28;20033;-59
2023/06/19 01:08:14;;;;;;;10.70;8.20;;;22.20;78.10;;;;;;5041439;28;20399;-58
2023/06/19 01:10:48;;;;;;;11.70;8.10;;;22.20;78.20;;;;;;5031029;28;20045;-59
2023/06/19 01:13:23;;;;;;;12.23;7.97;;;22.20;78.20;;;;;;5043739;28;20029;-59
2023/06/19 01:15:49;;;;;;;9.40;7.88;;;22.10;78.00;;;;;;5052514;28;20047;-59
2023/06/19 01:18:16;;;;;;;11.40;8.45;;;22.10;78.10;;;;;;5052223;28;20029;-59
2023/06/19 01:20:42;;;;;;;13.63;8.35;;;22.10;78.10;;;;;;5025509;28;20487;-57
2023/06/19 01:23:09;;;;;;;9.13;8.23;;;22.20;78.10;;;;;;5056077;28;20040;-58
2023/06/19 01:25:35;;;;;;;9.57;8.05;;;22.20;78.20;;;;;;5049406;28;20036;-58
2023/06/19 01:28:04;;;;;;;9.80;7.90;;;22.20;78.30;;;;;;5049411;28;20032;-58
2023/06/19 01:30:30;;;;;;;10.13;8.02;;;22.10;78.30;;;;;;5046825;28;20069;-60
2023/06/19 01:33:17;;;;;;;9.48;8.32;;;22.10;78.40;;;;;;5024447;28;20064;-61
2023/06/19 01:35:46;;;;;;;9.32;8.27;;;22.10;78.60;;;;;;5042407;28;20116;-58
2023/06/19 01:38:12;;;;;;;10.10;8.60;;;22.10;78.60;;;;;;5048662;28;20094;-60
2023/06/19 01:40:40;;;;;;;10.80;8.18;;;22.10;78.60;;;;;;5045005;28;20083;-59
2023/06/19 01:43:07;;;;;;;9.52;8.25;;;22.10;78.50;;;;;;5053250;28;20423;-59
2023/06/19 01:45:33;;;;;;;11.13;8.38;;;22.10;78.60;;;;;;5037038;28;20041;-61
2023/06/19 01:47:59;;;;;;;10.80;8.43;;;22.10;78.80;;;;;;5034737;28;20604;-58
2023/06/19 01:50:25;;;;;;;11.55;8.25;;;22.00;78.80;;;;;;5040807;28;20428;-58
2023/06/19 01:52:51;;;;;;;13.50;9.18;;;22.00;79.10;;;;;;5039794;28;20041;-59
2023/06/19 01:55:18;;;;;;;9.65;8.23;;;22.00;79.10;;;;;;5048520;28;20032;-59
2023/06/19 01:57:45;;;;;;;9.45;7.82;;;22.00;79.20;;;;;;5035160;28;20511;-64
2023/06/19 02:00:11;;;;;;;11.55;7.90;;;22.00;79.40;;;;;;5041847;28;20033;-59
2023/06/19 02:02:37;;;;;;;10.68;8.85;;;21.90;79.60;;;;;;5049001;28;20092;-59
2023/06/19 02:05:04;;;;;;;9.75;8.70;;;21.90;79.50;;;;;;5051251;28;20499;-58
2023/06/19 02:07:30;;;;;;;11.20;8.80;;;21.90;79.60;;;;;;5047784;28;20056;-58
2023/06/19 02:09:56;;;;;;;10.15;8.48;;;21.90;79.70;;;;;;5050386;28;20265;-59
2023/06/19 02:12:21;;;;;;;9.45;7.93;;;21.90;79.90;;;;;;5032854;28;20048;-59
2023/06/19 02:14:47;;;;;;;13.52;8.20;;;21.90;80.00;;;;;;5042436;28;20218;-59
2023/06/19 02:17:13;;;;;;;9.75;8.15;;;21.90;80.20;;;;;;5052106;28;20083;-59
2023/06/19 02:19:38;;;;;;;10.02;8.13;;;21.90;80.30;;;;;;5058720;28;20037;-63
2023/06/19 02:22:04;;;;;;;10.13;7.95;;;21.90;80.50;;;;;;5042383;28;20061;-58
2023/06/19 02:24:30;;;;;;;10.23;7.88;;;21.90;80.80;;;;;;5042769;28;20037;-58
2023/06/19 02:26:56;;;;;;;10.40;7.72;;;21.90;81.10;;;;;;5031333;28;20533;-59
2023/06/19 02:29:22;;;;;;;11.07;8.23;;;21.90;81.30;;;;;;5047222;28;20086;-59
2023/06/19 02:31:48;;;;;;;9.90;7.65;;;21.90;81.60;;;;;;5042938;28;20045;-58
2023/06/19 02:34:13;;;;;;;10.88;7.35;;;21.90;81.70;;;;;;5037336;28;20048;-59
2023/06/19 02:36:39;;;;;;;9.43;7.82;;;21.90;81.90;;;;;;5040106;28;20044;-59
2023/06/19 02:39:07;;;;;;;10.10;7.78;;;21.90;82.20;;;;;;5042861;28;20025;-65
2023/06/19 02:41:33;;;;;;;9.75;7.43;;;21.90;82.30;;;;;;5046045;28;20033;-60
2023/06/19 02:43:59;;;;;;;11.25;7.75;;;21.90;82.60;;;;;;5040324;28;20044;-64
2023/06/19 02:46:24;;;;;;;8.70;7.18;;;21.90;83.00;;;;;;5020400;28;20498;-59
2023/06/19 02:48:50;;;;;;;10.48;7.72;;;21.80;83.00;;;;;;5048763;28;20033;-59
2023/06/19 02:51:15;;;;;;;9.38;7.90;;;21.80;83.30;;;;;;5052908;28;20047;-60
2023/06/19 02:53:41;;;;;;;13.27;8.05;;;21.80;83.50;;;;;;5055721;28;20043;-65
2023/06/19 02:56:07;;;;;;;10.20;7.95;;;21.80;83.70;;;;;;5030213;28;20571;-58
2023/06/19 02:58:34;;;;;;;9.00;7.72;;;21.80;84.10;;;;;;5059731;22;20140;-63
2023/06/19 03:01:00;;;;;;;9.20;7.22;;;21.80;84.40;;;;;;5028311;28;20065;-63
2023/06/19 03:03:26;;;;;;;9.90;7.43;;;21.80;84.50;;;;;;5048710;28;20513;-63
2023/06/19 03:05:51;;;;;;;11.27;7.30;;;21.70;84.70;;;;;;5028922;28;20040;-63
2023/06/19 03:08:17;;;;;;;12.25;7.65;;;21.70;85.00;;;;;;5041511;28;20525;-63
2023/06/19 03:10:43;;;;;;;11.50;7.35;;;21.70;85.30;;;;;;5030661;28;20037;-63
2023/06/19 03:13:08;;;;;;;8.90;6.93;;;21.70;85.40;;;;;;5012142;28;20462;-63
2023/06/19 03:15:34;;;;;;;8.85;6.20;;;21.70;85.70;;;;;;5044772;28;20037;-63
2023/06/19 03:18:03;;;;;;;7.00;6.15;;;21.60;86.10;;;;;;5026783;28;20052;-63
2023/06/19 03:20:28;;;;;;;7.72;6.13;;;21.60;86.50;;;;;;5041871;28;20091;-63
2023/06/19 03:22:54;;;;;;;7.90;5.95;;;21.70;86.70;;;;;;5006486;28;20475;-63
2023/06/19 03:25:20;;;;;;;11.45;5.60;;;21.60;87.20;;;;;;5043853;28;20037;-63
2023/06/19 03:27:45;;;;;;;7.00;5.00;;;21.60;87.50;;;;;;5043281;28;20073;-63
2023/06/19 03:30:12;;;;;;;6.00;4.70;;;21.60;88.00;;;;;;5031369;28;20443;-63
2023/06/19 03:32:38;;;;;;;8.80;5.45;;;21.50;88.20;;;;;;5035225;28;20052;-63
2023/06/19 03:35:05;;;;;;;8.73;5.90;;;21.50;88.30;;;;;;5044936;28;20458;-63
2023/06/19 03:37:32;;;;;;;9.48;4.95;;;21.40;88.60;;;;;;5047296;28;20051;-63
2023/06/19 03:39:58;;;;;;;6.30;4.85;;;21.40;88.60;;;;;;5015775;28;20128;-63
2023/06/19 03:42:23;;;;;;;7.15;4.95;;;21.30;88.90;;;;;;5046667;28;20108;-63
2023/06/19 03:44:49;;;;;;;5.43;4.07;;;21.30;89.30;;;;;;5040290;28;20062;-63
2023/06/19 03:47:16;;;;;;;5.82;4.22;;;21.20;90.00;;;;;;5018047;28;20041;-63
2023/06/19 03:49:42;;;;;;;8.85;4.93;;;21.20;90.10;;;;;;5016819;28;20114;-63
2023/06/19 03:52:07;;;;;;;5.78;4.07;;;21.20;90.20;;;;;;5042999;28;20029;-64
2023/06/19 03:54:33;;;;;;;6.68;4.00;;;21.10;90.30;;;;;;5023629;28;20041;-63
2023/06/19 03:56:58;;;;;;;6.32;3.97;;;21.10;90.50;;;;;;5036447;28;20171;-63
2023/06/19 03:59:24;;;;;;;7.30;3.97;;;21.00;90.70;;;;;;5019523;28;20293;-63
2023/06/19 04:01:50;;;;;;;4.93;3.78;;;21.00;90.80;;;;;;5015505;28;20108;-63
2023/06/19 04:04:15;;;;;;;4.72;3.45;;;21.00;90.90;;;;;;5026933;28;20042;-63
2023/06/19 04:06:41;;;;;;;5.95;4.03;;;20.90;91.00;;;;;;5023810;28;20064;-63
2023/06/19 04:09:07;;;;;;;7.47;4.20;;;20.90;91.20;;;;;;5025721;28;20033;-63
2023/06/19 04:11:32;;;;;;;5.93;3.72;;;20.90;91.60;;;;;;5015207;28;20052;-63
2023/06/19 04:13:58;;;;;;;6.55;4.13;;;20.90;91.60;;;;;;5036955;28;20044;-63
2023/06/19 04:16:23;;;;;;;5.90;3.95;;;20.80;91.80;;;;;;5028636;28;20059;-63
2023/06/19 04:18:49;;;;;;;7.95;3.88;;;20.70;91.90;;;;;;4998504;28;20047;-63
2023/06/19 04:21:15;;;;;;;5.43;4.10;;;20.70;92.00;;;;;;5008849;28;20620;-63
2023/06/19 04:23:41;;;;;;;8.07;3.95;;;20.70;92.20;;;;;;5029856;28;20053;-63
2023/06/19 04:26:06;;;;;;;6.32;4.10;;;20.60;92.40;;;;;;5019098;28;20479;-63
2023/06/19 04:28:32;;;;;;;6.88;3.95;;;20.60;92.50;;;;;;5018347;28;20095;-63
2023/06/19 04:31:00;;;;;;;5.63;4.30;;;20.60;92.60;;;;;;5043191;28;20091;-63
2023/06/19 04:33:29;;;;;;;6.07;4.18;;;20.60;92.70;;;;;;5022059;28;20491;-63
2023/06/19 04:35:55;;;;;;;7.15;3.97;;;20.50;92.90;;;;;;5047780;28;20052;-63
2023/06/19 04:38:23;;;;;;;5.70;3.80;;;20.50;93.00;;;;;;5033481;28;20048;-63
2023/06/19 04:40:52;;;;;;;7.32;4.35;;;20.50;93.20;;;;;;5040950;28;20033;-63
2023/06/19 04:43:18;;;;;;;5.75;4.25;;;20.50;93.40;;;;;;5018609;28;20032;-63
2023/06/19 04:45:44;;;;;;;5.43;3.80;;;20.50;93.50;;;;;;5033161;28;20037;-63
2023/06/19 04:48:11;;;;;;;8.30;3.88;;;20.40;93.70;;;;;;5049062;28;20056;-63
2023/06/19 04:50:37;;;;;;;6.10;4.10;;;20.40;94.00;;;;;;5034199;28;20049;-63
2023/06/19 04:53:02;;;;;;;7.15;4.50;;;20.40;94.20;;;;;;5034550;28;20049;-63
2023/06/19 04:55:28;;;;;;;6.38;4.30;;;20.40;94.30;;;;;;5038442;28;20040;-63
2023/06/19 04:57:54;;;;;;;5.50;4.18;;;20.40;94.50;;;;;;5040616;28;20076;-63
2023/06/19 05:00:23;;;;;;;6.95;4.50;;;20.40;94.60;;;;;;5043200;28;20518;-63
2023/06/19 05:02:49;;;;;;;6.63;4.55;;;20.40;94.70;;;;;;5049221;28;20083;-63
2023/06/19 05:05:16;;;;;;;5.97;4.10;;;20.40;94.90;;;;;;5040623;28;20029;-63
2023/06/19 05:07:42;;;;;;;6.03;4.40;;;20.40;95.10;;;;;;5028053;28;20556;-63
2023/06/19 05:10:08;;;;;;;6.15;4.80;;;20.40;95.20;;;;;;5018247;28;20028;-63
2023/06/19 05:12:35;;;;;;;6.53;5.05;;;20.40;95.30;;;;;;5041454;28;20037;-63
2023/06/19 05:15:00;;;;;;;7.80;4.45;;;20.50;95.60;;;;;;5044397;28;20044;-63
2023/06/19 05:17:26;;;;;;;5.72;4.50;;;20.50;95.70;;;;;;5041654;28;20037;-63
2023/06/19 05:19:52;;;;;;;6.57;4.75;;;20.60;95.90;;;;;;5023080;28;20049;-63
2023/06/19 05:22:18;;;;;;;7.15;4.82;;;20.60;96.00;;;;;;5027216;28;20073;-63
2023/06/19 05:24:44;;;;;;;6.47;4.45;;;20.60;96.10;;;;;;5026626;28;20120;-63
2023/06/19 05:27:10;;;;;;;7.88;5.00;;;20.70;96.20;;;;;;5043888;28;20041;-63
2023/06/19 05:29:36;;;;;;;6.90;4.88;;;20.70;96.40;;;;;;5034332;28;20037;-63
2023/06/19 05:32:02;;;;;;;7.47;4.82;;;20.80;96.40;;;;;;5006614;28;20402;-63
2023/06/19 05:34:27;;;;;;;7.90;4.30;;;20.80;96.50;;;;;;5020888;28;20037;-63
2023/06/19 05:36:53;;;;;;;6.72;4.50;;;20.80;96.60;;;;;;5050510;28;20558;-63
2023/06/19 05:39:19;;;;;;;7.82;4.65;;;20.90;96.70;;;;;;5022660;28;20041;-63
2023/06/19 05:41:45;;;;;;;5.75;4.70;;;20.80;96.90;;;;;;5021023;28;20132;-63
2023/06/19 05:44:15;;;;;;;6.40;4.45;;;20.90;97.20;;;;;;5047555;28;20038;-63
2023/06/19 05:46:41;;;;;;;6.97;4.53;;;21.00;97.10;;;;;;5020855;28;20044;-63
2023/06/19 05:49:07;;;;;;;5.57;4.38;;;20.90;97.10;;;;;;5020545;28;20038;-63
2023/06/19 05:51:32;;;;;;;7.05;4.55;;;21.00;97.20;;;;;;5042109;28;20120;-63
2023/06/19 05:54:03;;;;;;;6.90;4.72;;;21.00;97.50;;;;;;5021741;28;20049;-63
2023/06/19 05:56:32;;;;;;;7.40;4.88;;;21.00;97.80;;;;;;5027980;28;20073;-63
2023/06/19 05:58:59;;;;;;;8.07;5.65;;;21.10;97.70;;;;;;5023598;28;20041;-63
2023/06/19 06:01:27;;;;;;;6.93;5.63;;;21.10;97.90;;;;;;5027448;28;20037;-63
2023/06/19 06:03:53;;;;;;;9.70;5.40;;;21.10;98.00;;;;;;5020090;28;20120;-63
2023/06/19 06:06:19;;;;;;;7.03;5.05;;;21.10;98.10;;;;;;5044295;28;20041;-64
2023/06/19 06:08:45;;;;;;;7.10;5.90;;;21.10;98.30;;;;;;5049513;28;20061;-64
2023/06/19 06:11:10;;;;;;;8.80;7.20;;;21.10;98.40;;;;;;5033932;28;20503;-63
2023/06/19 06:13:36;;;;;;;10.70;7.90;;;21.10;98.70;;;;;;5033797;28;20048;-63
2023/06/19 06:16:02;;;;;;;10.30;7.40;;;21.10;99.00;;;;;;5019252;28;20040;-63
2023/06/19 06:18:27;;;;;;;11.45;8.57;;;21.00;99.10;;;;;;5019085;28;20041;-63
2023/06/19 06:20:53;;;;;;;11.48;9.20;;;21.00;99.30;;;;;;5034570;28;20048;-63
2023/06/19 06:23:18;;;;;;;13.85;9.20;;;21.10;99.40;;;;;;5022490;28;20034;-63
2023/06/19 06:25:45;;;;;;;13.32;9.60;;;21.10;99.70;;;;;;5043475;28;20526;-63
2023/06/19 06:28:11;;;;;;;13.25;9.52;;;21.10;99.70;;;;;;5020926;28;20053;-63
2023/06/19 06:30:38;;;;;;;11.13;8.93;;;21.00;99.80;;;;;;5029159;28;20040;-63
2023/06/19 06:33:04;;;;;;;12.07;8.63;;;21.00;99.90;;;;;;5041145;28;20187;-63
2023/06/19 06:35:30;;;;;;;12.30;9.43;;;21.00;99.90;;;;;;5030662;28;20098;-63
2023/06/19 06:37:55;;;;;;;11.25;9.00;;;21.00;99.90;;;;;;5028348;28;20528;-63
2023/06/19 06:40:21;;;;;;;11.10;9.23;;;21.00;99.90;;;;;;5045006;28;20041;-63
2023/06/19 06:42:47;;;;;;;16.95;9.02;;;21.00;99.90;;;;;;5033944;28;20041;-63
2023/06/19 06:45:13;;;;;;;14.93;9.13;;;21.00;99.90;;;;;;5044096;28;20033;-63
2023/06/19 06:47:39;;;;;;;11.95;8.75;;;20.90;99.90;;;;;;5043260;28;20085;-63
2023/06/19 06:50:06;;;;;;;11.38;8.43;;;20.90;99.90;;;;;;5007545;28;20442;-63
2023/06/19 06:52:32;;;;;;;10.05;7.80;;;20.90;99.90;;;;;;5032858;28;20040;-63
2023/06/19 06:54:58;;;;;;;10.35;8.23;;;20.90;99.90;;;;;;5004604;28;20041;-62
2023/06/19 06:57:23;;;;;;;9.57;8.00;;;21.00;99.90;;;;;;5045353;28;20029;-61
2023/06/19 06:59:49;;;;;;;9.77;7.90;;;20.90;99.90;;;;;;5031574;28;20041;-61
2023/06/19 07:02:15;;;;;;;8.63;7.57;;;20.90;99.90;;;;;;5028331;28;20429;-61
2023/06/19 07:04:40;;;;;;;12.43;8.60;;;20.90;99.90;;;;;;5038307;28;20041;-62
2023/06/19 07:07:06;;;;;;;9.88;7.57;;;20.90;99.90;;;;;;5020343;28;20040;-66
2023/06/19 07:09:33;;;;;;;9.13;7.93;;;20.90;99.90;;;;;;5047656;28;20041;-65
2023/06/19 07:11:58;;;;;;;8.40;7.50;;;20.90;99.90;;;;;;5019273;28;20471;-63
2023/06/19 07:14:24;;;;;;;8.48;7.05;;;20.90;99.90;;;;;;5026636;28;20072;-67
2023/06/19 07:16:50;;;;;;;12.73;7.30;;;20.90;99.90;;;;;;5039042;28;20033;-61
2023/06/19 07:19:16;;;;;;;11.45;7.72;;;20.80;99.90;;;;;;5045245;28;20376;-62
2023/06/19 07:21:42;;;;;;;9.77;6.90;;;20.80;99.90;;;;;;5037992;28;20090;-61
2023/06/19 07:24:08;;;;;;;7.72;6.47;;;20.90;99.90;;;;;;5041214;28;20479;-61
2023/06/19 07:26:34;;;;;;;9.75;7.18;;;20.80;99.90;;;;;;5040740;28;20044;-62
2023/06/19 07:28:59;;;;;;;9.98;6.10;;;20.80;99.90;;;;;;5023634;28;20096;-61
2023/06/19 07:31:25;;;;;;;9.23;5.88;;;20.80;99.90;;;;;;5041809;28;20045;-62
2023/06/19 07:33:50;;;;;;;8.60;7.05;;;20.80;99.90;;;;;;5021996;28;20041;-68
2023/06/19 07:36:16;;;;;;;11.20;8.27;;;20.80;99.90;;;;;;5039145;28;20041;-61
2023/06/19 07:38:43;;;;;;;9.35;8.35;;;20.80;99.90;;;;;;5041974;28;20036;-61
2023/06/19 07:41:09;;;;;;;10.38;9.35;;;20.90;99.90;;;;;;5039058;28;20095;-61
2023/06/19 07:43:35;;;;;;;15.05;9.98;;;20.90;99.90;;;;;;5027265;28;20124;-67
2023/06/19 07:46:01;;;;;;;13.15;10.80;;;20.90;99.90;;;;;;5046776;28;20072;-66
2023/06/19 07:48:27;;;;;;;12.88;10.75;;;20.90;99.90;;;;;;5038813;28;20449;-65
2023/06/19 07:50:53;;;;;;;12.48;11.18;;;20.80;99.90;;;;;;5048567;28;20040;-61
2023/06/19 07:53:19;;;;;;;13.05;11.75;;;20.80;99.90;;;;;;5046738;28;20068;-67
2023/06/19 07:55:45;;;;;;;14.02;12.55;;;20.80;99.90;;;;;;5041082;28;20119;-61
2023/06/19 07:58:11;;;;;;;14.32;12.93;;;20.80;99.90;;;;;;5024082;28;20091;-64
2023/06/19 08:00:36;;;;;;;14.50;12.32;;;20.90;99.90;;;;;;5008390;28;20046;-64
2023/06/19 08:03:02;;;;;;;12.77;10.80;;;21.00;99.90;;;;;;5040344;28;20120;-65
2023/06/19 08:05:28;;;;;;;12.90;10.35;;;21.00;99.90;;;;;;5040314;28;20091;-65
2023/06/19 08:07:53;;;;;;;12.82;10.68;;;21.10;99.90;;;;;;5041993;28;20083;-63
2023/06/19 08:10:19;;;;;;;14.65;12.07;;;21.10;99.70;;;;;;5049975;28;20063;-65
2023/06/19 08:12:45;;;;;;;13.60;12.20;;;21.10;99.50;;;;;;5045134;28;20064;-64
2023/06/19 08:15:13;;;;;;;13.48;12.13;;;21.10;99.50;;;;;;5040594;28;20032;-65
2023/06/19 08:17:38;;;;;;;13.77;12.48;;;21.20;99.50;;;;;;5024154;28;20095;-65
2023/06/19 08:20:05;;;;;;;14.43;12.93;;;21.10;99.60;;;;;;5032820;28;20053;-64
2023/06/19 08:22:31;;;;;;;14.02;12.55;;;21.20;99.60;;;;;;5044601;28;20249;-65
2023/06/19 08:24:56;;;;;;;13.75;12.43;;;21.30;99.60;;;;;;5052584;28;20368;-65
2023/06/19 08:27:22;;;;;;;13.30;12.05;;;21.40;99.30;;;;;;5042462;28;21152;-62
2023/06/19 08:29:47;;;;;;;13.73;11.23;;;21.30;99.10;;;;;;5050006;28;20167;-65
2023/06/19 08:32:13;;;;;;;12.68;10.60;;;21.30;99.00;;;;;;5049255;28;20041;-65
2023/06/19 08:34:39;;;;;;;11.40;9.38;;;21.30;98.80;;;;;;5053143;28;20048;-65
2023/06/19 08:37:05;;;;;;;9.65;8.65;;;21.30;98.50;;;;;;5034856;28;20051;-63
2023/06/19 08:39:31;;;;;;;9.93;8.90;;;21.30;98.40;;;;;;5031959;28;20383;-65
2023/06/19 08:41:57;;;;;;;9.95;8.55;;;21.30;98.30;;;;;;5033751;28;20040;-63
2023/06/19 08:44:22;;;;;;;10.60;8.30;;;21.30;98.00;;;;;;5007816;28;20041;-63
2023/06/19 08:46:48;;;;;;;11.35;7.30;;;21.30;98.00;;;;;;5046152;28;20037;-63
2023/06/19 08:49:14;;;;;;;10.30;7.82;;;21.50;97.80;;;;;;5048898;28;20059;-63
2023/06/19 08:51:40;;;;;;;9.38;7.82;;;21.60;97.50;;;;;;5042666;28;20041;-63
2023/06/19 08:54:08;;;;;;;9.10;7.78;;;21.70;97.10;;;;;;5035784;28;20037;-63
2023/06/19 08:56:35;;;;;;;8.77;7.70;;;21.70;97.00;;;;;;5030600;28;20076;-63
2023/06/19 08:59:17;;;;;;;10.55;7.25;;;21.80;97.20;;;;;;5002235;28;20106;-63
2023/06/19 09:01:54;;;;;;;8.88;7.32;;;21.90;96.60;;;;;;5019588;28;20495;-64
2023/06/19 09:04:23;;;;;;;9.27;7.65;;;22.00;96.10;;;;;;5036970;28;20167;-64
2023/06/19 09:06:54;;;;;;;8.75;6.93;;;22.00;96.10;;;;;;5021567;28;20076;-64
2023/06/19 09:09:21;;;;;;;8.52;7.18;;;22.00;95.90;;;;;;5042777;28;20620;-64
2023/06/19 09:12:04;;;;;;;9.27;7.65;;;22.10;96.00;;;;;;5041935;28;20127;-64
2023/06/19 09:14:41;;;;;;;14.77;7.80;;;22.00;95.90;;;;;;5016526;28;20041;-64
2023/06/19 09:17:10;;;;;;;13.20;8.77;;;22.10;95.80;;;;;;5025835;28;20116;-64
2023/06/19 09:19:36;;;;;;;10.05;7.03;;;22.00;95.80;;;;;;5043237;28;20041;-64
2023/06/19 09:22:04;;;;;;;10.07;6.57;;;22.00;95.60;;;;;;5024825;28;20033;-64
2023/06/19 09:24:41;;;;;;;9.15;7.65;;;22.00;95.70;;;;;;5040687;28;20072;-64
2023/06/19 09:27:20;;;;;;;7.63;6.80;;;21.90;96.00;;;;;;5025275;28;20094;-64
2023/06/19 09:29:50;;;;;;;9.38;7.32;;;22.00;96.30;;;;;;5046966;28;20449;-64
2023/06/19 09:32:22;;;;;;;10.75;8.25;;;22.00;96.30;;;;;;5017413;28;20124;-64
2023/06/19 09:34:49;;;;;;;10.50;8.52;;;22.10;96.00;;;;;;5022291;28;20044;-64
2023/06/19 09:37:15;;;;;;;13.13;9.35;;;22.10;95.90;;;;;;5024081;28;20043;-64
2023/06/19 09:39:41;;;;;;;17.27;8.82;;;22.10;96.00;;;;;;5026270;28;20533;-64
2023/06/19 09:42:08;;;;;;;10.82;8.05;;;22.10;96.30;;;;;;5043289;28;20036;-63
2023/06/19 09:44:40;;;;;;;13.00;8.70;;;22.00;95.90;;;;;;5026446;28;20502;-64
2023/06/19 09:47:33;;;;;;;11.85;8.32;;;22.10;95.70;;;;;;5004428;28;20554;-63
2023/06/19 09:50:01;;;;;;;10.77;8.93;;;22.20;95.90;;;;;;5028158;28;20052;-63
2023/06/19 09:52:27;;;;;;;13.75;10.15;;;22.20;95.80;;;;;;5043462;28;20045;-63
2023/06/19 09:54:54;;;;;;;12.93;10.82;;;22.10;95.70;;;;;;5013299;28;20081;-63
2023/06/19 09:57:21;;;;;;;15.45;10.63;;;22.10;95.60;;;;;;5025135;28;20443;-63
2023/06/19 09:59:58;;;;;;;13.27;11.02;;;22.20;95.90;;;;;;5034260;28;20029;-63
2023/06/19 10:02:26;;;;;;;14.10;10.48;;;22.30;95.80;;;;;;5039576;28;20127;-64
2023/06/19 10:04:55;;;;;;;12.80;10.02;;;22.30;95.30;;;;;;5019556;28;20048;-63
2023/06/19 10:07:33;;;;;;;12.85;9.82;;;22.20;95.10;;;;;;5041009;28;20438;-63
2023/06/19 10:10:05;;;;;;;11.07;9.30;;;22.20;95.00;;;;;;5039726;28;20028;-63
2023/06/19 10:12:44;;;;;;;10.98;8.10;;;22.00;95.00;;;;;;5045459;28;20507;-63
2023/06/19 10:15:26;;;;;;;9.27;8.13;;;22.10;95.00;;;;;;5023406;28;20041;-63
2023/06/19 10:17:58;;;;;;;10.90;9.13;;;22.00;95.00;;;;;;5021808;28;20519;-63
2023/06/19 10:20:33;;;;;;;14.52;8.07;;;22.00;95.00;;;;;;5043428;22;20033;-72
2023/06/19 10:23:18;;;;;;;16.45;8.80;;;22.00;95.00;;;;;;5026980;28;20397;-72
2023/06/19 10:25:46;;;;;;;12.55;7.72;;;22.00;95.10;;;;;;5029697;28;20040;-72
2023/06/19 10:28:19;;;;;;;9.35;6.70;;;22.10;95.10;;;;;;5050191;28;20037;-72
2023/06/19 10:30:45;;;;;;;10.23;7.20;;;22.20;95.00;;;;;;5037919;28;20460;-71
2023/06/19 10:33:11;;;;;;;10.25;7.55;;;22.40;94.80;;;;;;5015854;28;20056;-71
2023/06/19 10:35:40;;;;;;;9.18;6.88;;;22.50;94.80;;;;;;5041936;28;20033;-71
2023/06/19 10:38:07;;;;;;;9.52;7.22;;;22.60;94.80;;;;;;5013703;28;20040;-72
2023/06/19 10:40:33;;;;;;;13.48;7.57;;;22.80;94.40;;;;;;5007357;28;20558;-72
2023/06/19 10:42:58;;;;;;;14.15;8.18;;;23.10;94.10;;;;;;5009960;28;20132;-72
2023/06/19 10:45:28;;;;;;;11.90;8.60;;;23.10;93.70;;;;;;5024876;28;20476;-73
2023/06/19 10:47:54;;;;;;;10.77;8.27;;;23.10;93.30;;;;;;5014145;28;20056;-73
2023/06/19 10:50:20;;;;;;;10.00;8.07;;;23.10;93.30;;;;;;4984969;28;20041;-72
2023/06/19 10:52:47;;;;;;;10.90;8.60;;;23.30;93.50;;;;;;5011929;28;20661;-72
2023/06/19 10:55:13;;;;;;;9.50;8.45;;;23.50;93.40;;;;;;5016152;28;20386;-72
2023/06/19 10:57:49;;;;;;;11.00;8.68;;;23.80;93.40;;;;;;5012545;28;20060;-72
2023/06/19 11:00:32;;;;;;;11.40;8.30;;;23.90;93.00;;;;;;5037536;28;20030;-71
2023/06/19 11:02:58;;;;;;;11.48;9.68;;;23.90;92.20;;;;;;5029803;28;20055;-71
2023/06/19 11:05:25;;;;;;;12.43;8.90;;;23.80;92.20;;;;;;5022568;28;20037;-71
2023/06/19 11:07:58;;;;;;;16.58;9.65;;;23.70;92.20;;;;;;5029032;28;20108;-73
2023/06/19 11:10:27;;;;;;;10.07;8.00;;;23.60;92.10;;;;;;5014068;28;20033;-71
2023/06/19 11:12:55;;;;;;;10.13;8.38;;;23.40;92.00;;;;;;5033745;28;20136;-71
2023/06/19 11:15:31;;;;;;;10.40;8.70;;;23.40;92.00;;;;;;5018062;28;20431;-71
2023/06/19 11:17:58;;;;;;;11.40;9.15;;;23.40;92.20;;;;;;5029349;28;20268;-70
2023/06/19 11:20:24;;;;;;;11.82;8.50;;;23.70;92.70;;;;;;5027527;28;20037;-71
2023/06/19 11:22:58;;;;;;;11.45;7.85;;;24.00;92.50;;;;;;5017994;28;20038;-71
2023/06/19 11:25:34;;;;;;;11.63;8.20;;;24.40;92.20;;;;;;5012133;28;20045;-71
2023/06/19 11:28:00;;;;;;;10.93;8.27;;;24.60;91.80;;;;;;5017438;28;20041;-71
2023/06/19 11:30:33;;;;;;;11.57;9.52;;;24.90;91.60;;;;;;5031135;28;20055;-71
2023/06/19 11:32:59;;;;;;;11.50;9.40;;;25.00;91.20;;;;;;5008486;28;20095;-72
2023/06/19 11:35:25;;;;;;;25.33;10.45;;;25.00;90.90;;;;;;5031709;28;20032;-71
2023/06/19 11:37:51;;;;;;;11.55;10.23;;;25.10;90.90;;;;;;5016407;28;20084;-74
2023/06/19 11:40:19;;;;;;;15.10;10.50;;;25.20;91.00;;;;;;5009478;28;20460;-73
2023/06/19 11:42:52;;;;;;;13.38;10.15;;;25.20;90.70;;;;;;5002950;28;20082;-74
2023/06/19 11:45:18;;;;;;;14.23;10.98;;;25.20;90.60;;;;;;5004125;28;20473;-73
2023/06/19 11:47:46;;;;;;;12.30;10.38;;;25.10;90.40;;;;;;5023422;28;20120;-73
2023/06/19 11:50:13;;;;;;;12.40;11.10;;;24.80;90.20;;;;;;5023758;28;20401;-73
2023/06/19 11:52:39;;;;;;;12.68;11.23;;;24.60;90.40;;;;;;5034755;28;20069;-73
2023/06/19 11:55:05;;;;;;;11.07;9.02;;;24.50;90.80;;;;;;5005262;28;20505;-72
2023/06/19 11:57:32;;;;;;;11.50;9.95;;;24.40;91.10;;;;;;5004134;28;20041;-73
2023/06/19 11:59:58;;;;;;;15.98;10.00;;;24.60;91.60;;;;;;5011452;28;20124;-73
2023/06/19 12:02:24;;;;;;;11.48;9.60;;;25.00;91.70;;;;;;5012798;28;20168;-73
2023/06/19 12:04:49;;;;;;;13.52;10.45;;;25.40;91.50;;;;;;4997532;28;20476;-73
2023/06/19 12:07:15;;;;;;;14.75;10.75;;;25.70;90.40;;;;;;5025983;28;20033;-73
2023/06/19 12:09:43;;;;;;;12.95;10.95;;;25.80;90.10;;;;;;5013815;28;20119;-73
2023/06/19 12:12:09;;;;;;;12.50;10.35;;;25.80;89.50;;;;;;5001370;28;20083;-73
2023/06/19 12:14:34;;;;;;;15.27;10.23;;;25.90;88.70;;;;;;5004875;28;20092;-73
2023/06/19 12:17:00;;;;;;;14.50;10.45;;;25.80;88.40;;;;;;5027953;28;20388;-73
2023/06/19 12:19:27;;;;;;;14.88;11.65;;;25.80;88.40;;;;;;5025414;28;20484;-73
2023/06/19 12:21:53;;;;;;;12.50;9.88;;;25.70;87.50;;;;;;5013647;28;20045;-73
2023/06/19 12:24:19;;;;;;;16.65;10.60;;;25.50;87.90;;;;;;5010968;28;20073;-73
2023/06/19 12:26:44;;;;;;;15.63;10.88;;;25.50;87.50;;;;;;5007177;28;20057;-73
2023/06/19 12:29:10;;;;;;;12.93;10.80;;;25.40;87.00;;;;;;4992099;28;20548;-73
2023/06/19 12:31:36;;;;;;;15.32;10.65;;;25.40;87.60;;;;;;5014259;28;20120;-73
2023/06/19 12:34:02;;;;;;;15.45;11.13;;;25.50;88.20;;;;;;5029713;28;20121;-73
2023/06/19 12:36:28;;;;;;;14.18;11.55;;;25.80;88.50;;;;;;5021587;28;20033;-73
2023/06/19 12:38:54;;;;;;;14.70;10.18;;;26.10;87.70;;;;;;5014288;28;20389;-73
2023/06/19 12:41:22;;;;;;;18.45;10.05;;;26.40;87.70;;;;;;5010893;28;20449;-73